METAR Data

Data at: 1125 UTC 24 May 2022

METAR for:KLWM (Lawrence Muni, MA, US)
Text:KLWM 241054Z 03006KT 10SM CLR 12/04 A3036 RMK AO2 SLP281 T01170039
Temperature: 11.7°C ( 53°F)
Dewpoint: 3.9°C ( 39°F) [RH = 59%]
Pressure (altimeter):30.36 inches Hg (1028.2 mb) [Sea level pressure: 1028.1 mb]
Winds:from the NNE (30 degrees) at 7 MPH (6 knots; 3.1 m/s)
Visibility:10 or more sm (16+ km)
Ceiling:at least 12,000 feet AGL
Clouds:sky clear below 12,000 feet AGL